sensor_id;sensor_type;location;lat;lon;timestamp;P1;durP1;ratioP1;P2;durP2;ratioP2
3149;SDS011;32503;47.748;8.960;2023-05-13T00:01:51;4.53;;;4.23;;
3149;SDS011;32503;47.748;8.960;2023-05-13T00:04:18;4.27;;;3.97;;
3149;SDS011;32503;47.748;8.960;2023-05-13T00:06:47;5.80;;;5.20;;
3149;SDS011;32503;47.748;8.960;2023-05-13T00:09:14;4.20;;;3.90;;
3149;SDS011;32503;47.748;8.960;2023-05-13T00:11:41;5.33;;;4.83;;
3149;SDS011;32503;47.748;8.960;2023-05-13T00:14:08;5.10;;;4.70;;
3149;SDS011;32503;47.748;8.960;2023-05-13T00:16:36;4.93;;;4.50;;
3149;SDS011;32503;47.748;8.960;2023-05-13T00:19:03;4.77;;;4.47;;
3149;SDS011;32503;47.748;8.960;2023-05-13T00:21:30;4.80;;;4.50;;
3149;SDS011;32503;47.748;8.960;2023-05-13T00:23:59;4.83;;;4.50;;
3149;SDS011;32503;47.748;8.960;2023-05-13T00:26:26;6.00;;;4.90;;
3149;SDS011;32503;47.748;8.960;2023-05-13T00:28:53;5.67;;;5.27;;
3149;SDS011;32503;47.748;8.960;2023-05-13T00:31:20;4.73;;;4.37;;
3149;SDS011;32503;47.748;8.960;2023-05-13T00:33:47;5.43;;;4.97;;
3149;SDS011;32503;47.748;8.960;2023-05-13T00:36:14;5.13;;;4.70;;
3149;SDS011;32503;47.748;8.960;2023-05-13T00:38:41;5.50;;;4.63;;
3149;SDS011;32503;47.748;8.960;2023-05-13T00:41:10;4.87;;;4.57;;
3149;SDS011;32503;47.748;8.960;2023-05-13T00:43:38;5.10;;;4.60;;
3149;SDS011;32503;47.748;8.960;2023-05-13T00:46:05;5.80;;;5.30;;
3149;SDS011;32503;47.748;8.960;2023-05-13T00:48:32;5.07;;;4.67;;
3149;SDS011;32503;47.748;8.960;2023-05-13T00:50:59;4.63;;;4.23;;
3149;SDS011;32503;47.748;8.960;2023-05-13T00:53:26;5.50;;;5.10;;
3149;SDS011;32503;47.748;8.960;2023-05-13T00:55:54;6.00;;;5.57;;
3149;SDS011;32503;47.748;8.960;2023-05-13T00:58:23;5.70;;;5.20;;
3149;SDS011;32503;47.748;8.960;2023-05-13T01:01:08;6.20;;;5.60;;
3149;SDS011;32503;47.748;8.960;2023-05-13T01:03:44;5.07;;;4.67;;
3149;SDS011;32503;47.748;8.960;2023-05-13T01:06:20;6.03;;;5.53;;
3149;SDS011;32503;47.748;8.960;2023-05-13T01:08:54;5.50;;;5.00;;
3149;SDS011;32503;47.748;8.960;2023-05-13T01:11:28;5.33;;;4.70;;
3149;SDS011;32503;47.748;8.960;2023-05-13T01:14:02;4.13;;;3.93;;
3149;SDS011;32503;47.748;8.960;2023-05-13T01:16:36;4.67;;;4.37;;
3149;SDS011;32503;47.748;8.960;2023-05-13T01:19:13;5.00;;;4.63;;
3149;SDS011;32503;47.748;8.960;2023-05-13T01:22:00;6.17;;;5.67;;
3149;SDS011;32503;47.748;8.960;2023-05-13T01:24:27;6.27;;;5.77;;
3149;SDS011;32503;47.748;8.960;2023-05-13T01:26:54;5.40;;;5.00;;
3149;SDS011;32503;47.748;8.960;2023-05-13T01:29:21;6.93;;;5.70;;
3149;SDS011;32503;47.748;8.960;2023-05-13T01:31:48;5.50;;;5.30;;
3149;SDS011;32503;47.748;8.960;2023-05-13T01:34:16;5.30;;;4.83;;
3149;SDS011;32503;47.748;8.960;2023-05-13T01:36:44;5.80;;;5.20;;
3149;SDS011;32503;47.748;8.960;2023-05-13T01:39:14;6.67;;;6.17;;
3149;SDS011;32503;47.748;8.960;2023-05-13T01:41:43;11.13;;;6.67;;
3149;SDS011;32503;47.748;8.960;2023-05-13T01:44:10;6.73;;;5.90;;
3149;SDS011;32503;47.748;8.960;2023-05-13T01:46:37;7.93;;;7.30;;
3149;SDS011;32503;47.748;8.960;2023-05-13T01:49:04;7.50;;;6.80;;
3149;SDS011;32503;47.748;8.960;2023-05-13T01:51:33;7.53;;;6.50;;
3149;SDS011;32503;47.748;8.960;2023-05-13T01:54:02;6.80;;;6.20;;
3149;SDS011;32503;47.748;8.960;2023-05-13T01:56:30;7.00;;;6.30;;
3149;SDS011;32503;47.748;8.960;2023-05-13T01:58:57;6.90;;;6.27;;
3149;SDS011;32503;47.748;8.960;2023-05-13T02:01:25;7.60;;;6.90;;
3149;SDS011;32503;47.748;8.960;2023-05-13T02:03:52;7.37;;;6.67;;
3149;SDS011;32503;47.748;8.960;2023-05-13T02:06:19;7.10;;;6.47;;
3149;SDS011;32503;47.748;8.960;2023-05-13T02:08:46;5.63;;;5.23;;
3149;SDS011;32503;47.748;8.960;2023-05-13T02:11:13;6.70;;;6.20;;
3149;SDS011;32503;47.748;8.960;2023-05-13T02:13:42;6.77;;;5.30;;
3149;SDS011;32503;47.748;8.960;2023-05-13T02:16:09;6.13;;;5.60;;
3149;SDS011;32503;47.748;8.960;2023-05-13T02:18:39;5.70;;;5.30;;
3149;SDS011;32503;47.748;8.960;2023-05-13T02:21:06;6.30;;;5.90;;
3149;SDS011;32503;47.748;8.960;2023-05-13T02:23:33;5.50;;;5.10;;
3149;SDS011;32503;47.748;8.960;2023-05-13T02:26:01;6.87;;;6.27;;
3149;SDS011;32503;47.748;8.960;2023-05-13T02:28:28;6.20;;;5.80;;
3149;SDS011;32503;47.748;8.960;2023-05-13T02:30:56;6.80;;;6.20;;
3149;SDS011;32503;47.748;8.960;2023-05-13T02:33:23;6.63;;;6.03;;
3149;SDS011;32503;47.748;8.960;2023-05-13T02:35:50;5.20;;;4.83;;
3149;SDS011;32503;47.748;8.960;2023-05-13T02:38:17;9.67;;;6.37;;
3149;SDS011;32503;47.748;8.960;2023-05-13T02:40:44;6.17;;;5.57;;
3149;SDS011;32503;47.748;8.960;2023-05-13T02:43:12;5.63;;;5.23;;
3149;SDS011;32503;47.748;8.960;2023-05-13T02:45:39;5.90;;;5.37;;
3149;SDS011;32503;47.748;8.960;2023-05-13T02:48:07;7.23;;;6.73;;
3149;SDS011;32503;47.748;8.960;2023-05-13T02:50:35;5.80;;;5.40;;
3149;SDS011;32503;47.748;8.960;2023-05-13T02:53:04;6.60;;;6.10;;
3149;SDS011;32503;47.748;8.960;2023-05-13T02:55:31;7.20;;;6.50;;
3149;SDS011;32503;47.748;8.960;2023-05-13T02:57:58;6.27;;;5.77;;
3149;SDS011;32503;47.748;8.960;2023-05-13T03:00:25;6.07;;;5.57;;
3149;SDS011;32503;47.748;8.960;2023-05-13T03:02:52;6.07;;;5.57;;
3149;SDS011;32503;47.748;8.960;2023-05-13T03:05:21;6.63;;;6.03;;
3149;SDS011;32503;47.748;8.960;2023-05-13T03:07:48;6.40;;;5.93;;
3149;SDS011;32503;47.748;8.960;2023-05-13T03:10:15;6.33;;;5.67;;
3149;SDS011;32503;47.748;8.960;2023-05-13T03:12:42;5.23;;;4.90;;
3149;SDS011;32503;47.748;8.960;2023-05-13T03:15:10;5.60;;;5.20;;
3149;SDS011;32503;47.748;8.960;2023-05-13T03:17:37;7.10;;;6.43;;
3149;SDS011;32503;47.748;8.960;2023-05-13T03:20:04;5.70;;;5.23;;
3149;SDS011;32503;47.748;8.960;2023-05-13T03:22:34;6.73;;;6.10;;
3149;SDS011;32503;47.748;8.960;2023-05-13T03:25:03;7.37;;;6.70;;
3149;SDS011;32503;47.748;8.960;2023-05-13T03:27:30;6.90;;;6.33;;
3149;SDS011;32503;47.748;8.960;2023-05-13T03:29:57;7.77;;;6.13;;
3149;SDS011;32503;47.748;8.960;2023-05-13T03:32:24;6.17;;;5.63;;
3149;SDS011;32503;47.748;8.960;2023-05-13T03:34:54;7.03;;;6.40;;
3149;SDS011;32503;47.748;8.960;2023-05-13T03:37:22;6.80;;;6.10;;
3149;SDS011;32503;47.748;8.960;2023-05-13T03:39:50;6.70;;;6.13;;
3149;SDS011;32503;47.748;8.960;2023-05-13T03:42:18;7.07;;;6.37;;
3149;SDS011;32503;47.748;8.960;2023-05-13T03:44:45;6.33;;;5.73;;
3149;SDS011;32503;47.748;8.960;2023-05-13T03:47:12;6.97;;;6.17;;
3149;SDS011;32503;47.748;8.960;2023-05-13T03:49:39;6.00;;;5.50;;
3149;SDS011;32503;47.748;8.960;2023-05-13T03:52:06;6.00;;;5.40;;
3149;SDS011;32503;47.748;8.960;2023-05-13T03:54:33;6.37;;;5.80;;
3149;SDS011;32503;47.748;8.960;2023-05-13T03:57:02;6.10;;;5.57;;
3149;SDS011;32503;47.748;8.960;2023-05-13T03:59:29;6.17;;;5.67;;
3149;SDS011;32503;47.748;8.960;2023-05-13T04:01:56;8.20;;;7.03;;
3149;SDS011;32503;47.748;8.960;2023-05-13T04:04:23;6.50;;;5.90;;
3149;SDS011;32503;47.748;8.960;2023-05-13T04:06:50;7.07;;;6.23;;
3149;SDS011;32503;47.748;8.960;2023-05-13T04:09:17;6.00;;;5.50;;
3149;SDS011;32503;47.748;8.960;2023-05-13T04:11:44;8.10;;;7.03;;
3149;SDS011;32503;47.748;8.960;2023-05-13T04:14:12;6.27;;;5.67;;
3149;SDS011;32503;47.748;8.960;2023-05-13T04:16:40;7.00;;;6.30;;
3149;SDS011;32503;47.748;8.960;2023-05-13T04:19:07;8.50;;;7.07;;
3149;SDS011;32503;47.748;8.960;2023-05-13T04:21:34;5.80;;;5.50;;
3149;SDS011;32503;47.748;8.960;2023-05-13T04:24:01;6.17;;;5.67;;
3149;SDS011;32503;47.748;8.960;2023-05-13T04:26:28;6.73;;;6.13;;
3149;SDS011;32503;47.748;8.960;2023-05-13T04:28:55;8.60;;;7.07;;
3149;SDS011;32503;47.748;8.960;2023-05-13T04:31:23;6.50;;;6.00;;
3149;SDS011;32503;47.748;8.960;2023-05-13T04:33:50;6.50;;;6.00;;
3149;SDS011;32503;47.748;8.960;2023-05-13T04:36:17;7.00;;;6.50;;
3149;SDS011;32503;47.748;8.960;2023-05-13T04:38:44;8.60;;;7.03;;
3149;SDS011;32503;47.748;8.960;2023-05-13T04:41:11;6.47;;;5.83;;
3149;SDS011;32503;47.748;8.960;2023-05-13T04:43:38;8.33;;;6.83;;
3149;SDS011;32503;47.748;8.960;2023-05-13T04:46:05;6.33;;;5.83;;
3149;SDS011;32503;47.748;8.960;2023-05-13T04:48:34;7.50;;;6.23;;
3149;SDS011;32503;47.748;8.960;2023-05-13T04:51:01;6.93;;;6.33;;
3149;SDS011;32503;47.748;8.960;2023-05-13T04:53:28;6.93;;;6.23;;
3149;SDS011;32503;47.748;8.960;2023-05-13T04:55:55;7.23;;;6.50;;
3149;SDS011;32503;47.748;8.960;2023-05-13T04:58:24;6.30;;;5.80;;
3149;SDS011;32503;47.748;8.960;2023-05-13T05:00:52;6.50;;;5.90;;
3149;SDS011;32503;47.748;8.960;2023-05-13T05:03:19;6.20;;;5.70;;
3149;SDS011;32503;47.748;8.960;2023-05-13T05:05:47;7.17;;;6.47;;
3149;SDS011;32503;47.748;8.960;2023-05-13T05:08:15;6.27;;;5.77;;
3149;SDS011;32503;47.748;8.960;2023-05-13T05:10:42;6.17;;;5.57;;
3149;SDS011;32503;47.748;8.960;2023-05-13T05:13:09;6.70;;;6.00;;
3149;SDS011;32503;47.748;8.960;2023-05-13T05:15:36;7.00;;;6.30;;
3149;SDS011;32503;47.748;8.960;2023-05-13T05:18:03;5.20;;;4.87;;
3149;SDS011;32503;47.748;8.960;2023-05-13T05:20:31;5.70;;;5.30;;
3149;SDS011;32503;47.748;8.960;2023-05-13T05:22:59;7.43;;;5.60;;
3149;SDS011;32503;47.748;8.960;2023-05-13T05:25:27;5.57;;;5.07;;
3149;SDS011;32503;47.748;8.960;2023-05-13T05:27:54;6.00;;;5.63;;
3149;SDS011;32503;47.748;8.960;2023-05-13T05:30:21;7.70;;;6.90;;
3149;SDS011;32503;47.748;8.960;2023-05-13T05:32:48;6.33;;;5.83;;
3149;SDS011;32503;47.748;8.960;2023-05-13T05:35:15;8.17;;;6.10;;
3149;SDS011;32503;47.748;8.960;2023-05-13T05:37:43;6.00;;;5.63;;
3149;SDS011;32503;47.748;8.960;2023-05-13T05:40:12;5.93;;;5.33;;
3149;SDS011;32503;47.748;8.960;2023-05-13T05:42:39;8.33;;;7.00;;
3149;SDS011;32503;47.748;8.960;2023-05-13T05:45:07;6.60;;;5.50;;
3149;SDS011;32503;47.748;8.960;2023-05-13T05:47:34;5.80;;;5.23;;
3149;SDS011;32503;47.748;8.960;2023-05-13T05:50:01;5.83;;;5.43;;
3149;SDS011;32503;47.748;8.960;2023-05-13T05:52:29;6.90;;;6.27;;
3149;SDS011;32503;47.748;8.960;2023-05-13T05:54:56;5.77;;;5.40;;
3149;SDS011;32503;47.748;8.960;2023-05-13T05:57:25;6.67;;;6.13;;
3149;SDS011;32503;47.748;8.960;2023-05-13T05:59:52;5.53;;;5.10;;
3149;SDS011;32503;47.748;8.960;2023-05-13T06:02:19;6.67;;;6.07;;
3149;SDS011;32503;47.748;8.960;2023-05-13T06:04:46;7.37;;;6.37;;
3149;SDS011;32503;47.748;8.960;2023-05-13T06:07:13;6.23;;;5.73;;
3149;SDS011;32503;47.748;8.960;2023-05-13T06:09:40;6.80;;;6.07;;
3149;SDS011;32503;47.748;8.960;2023-05-13T06:12:07;5.93;;;5.37;;
3149;SDS011;32503;47.748;8.960;2023-05-13T06:14:35;5.90;;;5.40;;
3149;SDS011;32503;47.748;8.960;2023-05-13T06:17:02;6.37;;;5.87;;
3149;SDS011;32503;47.748;8.960;2023-05-13T06:19:30;4.80;;;4.47;;
3149;SDS011;32503;47.748;8.960;2023-05-13T06:21:57;4.90;;;4.60;;
3149;SDS011;32503;47.748;8.960;2023-05-13T06:24:24;5.13;;;4.63;;
3149;SDS011;32503;47.748;8.960;2023-05-13T06:26:51;4.77;;;4.47;;
3149;SDS011;32503;47.748;8.960;2023-05-13T06:29:18;4.60;;;4.20;;
3149;SDS011;32503;47.748;8.960;2023-05-13T06:31:46;4.30;;;4.00;;
3149;SDS011;32503;47.748;8.960;2023-05-13T06:34:13;4.97;;;4.67;;
3149;SDS011;32503;47.748;8.960;2023-05-13T06:36:41;4.30;;;4.10;;
3149;SDS011;32503;47.748;8.960;2023-05-13T06:39:08;3.73;;;3.53;;
3149;SDS011;32503;47.748;8.960;2023-05-13T06:41:36;5.00;;;4.60;;
3149;SDS011;32503;47.748;8.960;2023-05-13T06:44:04;4.87;;;4.57;;
3149;SDS011;32503;47.748;8.960;2023-05-13T06:46:32;6.20;;;5.70;;
3149;SDS011;32503;47.748;8.960;2023-05-13T06:49:00;5.03;;;4.60;;
3149;SDS011;32503;47.748;8.960;2023-05-13T06:51:27;4.70;;;4.40;;
3149;SDS011;32503;47.748;8.960;2023-05-13T06:53:56;5.20;;;5.00;;
3149;SDS011;32503;47.748;8.960;2023-05-13T06:56:26;4.57;;;4.27;;
3149;SDS011;32503;47.748;8.960;2023-05-13T06:58:53;4.10;;;3.80;;
3149;SDS011;32503;47.748;8.960;2023-05-13T07:01:20;5.10;;;4.70;;
3149;SDS011;32503;47.748;8.960;2023-05-13T07:03:47;4.30;;;4.10;;
3149;SDS011;32503;47.748;8.960;2023-05-13T07:06:16;4.20;;;3.90;;
3149;SDS011;32503;47.748;8.960;2023-05-13T07:08:43;4.60;;;4.30;;
3149;SDS011;32503;47.748;8.960;2023-05-13T07:11:10;4.70;;;4.40;;
3149;SDS011;32503;47.748;8.960;2023-05-13T07:13:37;4.50;;;4.20;;
3149;SDS011;32503;47.748;8.960;2023-05-13T07:16:04;3.60;;;3.40;;
3149;SDS011;32503;47.748;8.960;2023-05-13T07:18:31;4.40;;;4.10;;
3149;SDS011;32503;47.748;8.960;2023-05-13T07:20:58;3.67;;;3.47;;
3149;SDS011;32503;47.748;8.960;2023-05-13T07:23:27;4.90;;;4.40;;
3149;SDS011;32503;47.748;8.960;2023-05-13T07:25:55;4.23;;;4.03;;
3149;SDS011;32503;47.748;8.960;2023-05-13T07:28:22;3.73;;;3.53;;
3149;SDS011;32503;47.748;8.960;2023-05-13T07:30:49;4.60;;;4.30;;
3149;SDS011;32503;47.748;8.960;2023-05-13T07:33:17;4.50;;;4.30;;
3149;SDS011;32503;47.748;8.960;2023-05-13T07:35:44;4.90;;;4.53;;
3149;SDS011;32503;47.748;8.960;2023-05-13T07:38:11;4.63;;;4.23;;
3149;SDS011;32503;47.748;8.960;2023-05-13T07:40:40;4.10;;;3.80;;
3149;SDS011;32503;47.748;8.960;2023-05-13T07:43:07;4.20;;;4.00;;
3149;SDS011;32503;47.748;8.960;2023-05-13T07:45:34;4.10;;;3.90;;
3149;SDS011;32503;47.748;8.960;2023-05-13T07:48:03;3.90;;;3.70;;
3149;SDS011;32503;47.748;8.960;2023-05-13T07:50:30;3.40;;;3.20;;
3149;SDS011;32503;47.748;8.960;2023-05-13T07:52:57;4.17;;;3.97;;
3149;SDS011;32503;47.748;8.960;2023-05-13T07:55:24;4.13;;;3.93;;
3149;SDS011;32503;47.748;8.960;2023-05-13T07:57:53;3.70;;;3.50;;
3149;SDS011;32503;47.748;8.960;2023-05-13T08:00:20;3.40;;;3.23;;
3149;SDS011;32503;47.748;8.960;2023-05-13T08:02:47;3.83;;;3.57;;
3149;SDS011;32503;47.748;8.960;2023-05-13T08:05:14;3.60;;;3.40;;
3149;SDS011;32503;47.748;8.960;2023-05-13T08:07:41;3.70;;;3.50;;
3149;SDS011;32503;47.748;8.960;2023-05-13T08:10:08;3.80;;;3.60;;
3149;SDS011;32503;47.748;8.960;2023-05-13T08:12:35;3.73;;;3.50;;
3149;SDS011;32503;47.748;8.960;2023-05-13T08:15:06;3.70;;;3.50;;
3149;SDS011;32503;47.748;8.960;2023-05-13T08:17:36;4.00;;;3.80;;
3149;SDS011;32503;47.748;8.960;2023-05-13T08:20:03;3.40;;;3.20;;
3149;SDS011;32503;47.748;8.960;2023-05-13T08:22:31;4.10;;;3.90;;
3149;SDS011;32503;47.748;8.960;2023-05-13T08:24:58;4.33;;;3.43;;
3149;SDS011;32503;47.748;8.960;2023-05-13T08:27:25;3.30;;;3.03;;
3149;SDS011;32503;47.748;8.960;2023-05-13T08:29:52;4.03;;;3.83;;
3149;SDS011;32503;47.748;8.960;2023-05-13T08:32:21;5.83;;;3.77;;
3149;SDS011;32503;47.748;8.960;2023-05-13T08:34:48;3.70;;;3.40;;
3149;SDS011;32503;47.748;8.960;2023-05-13T08:37:15;3.63;;;3.47;;
3149;SDS011;32503;47.748;8.960;2023-05-13T08:39:42;3.90;;;3.60;;
3149;SDS011;32503;47.748;8.960;2023-05-13T08:42:09;4.87;;;4.47;;
3149;SDS011;32503;47.748;8.960;2023-05-13T08:44:39;3.17;;;2.97;;
3149;SDS011;32503;47.748;8.960;2023-05-13T08:47:11;4.43;;;4.13;;
3149;SDS011;32503;47.748;8.960;2023-05-13T08:49:48;3.80;;;3.60;;
3149;SDS011;32503;47.748;8.960;2023-05-13T08:52:17;3.80;;;3.60;;
3149;SDS011;32503;47.748;8.960;2023-05-13T08:54:46;3.03;;;2.93;;
3149;SDS011;32503;47.748;8.960;2023-05-13T08:57:14;7.80;;;6.63;;
3149;SDS011;32503;47.748;8.960;2023-05-13T08:59:42;4.27;;;3.97;;
3149;SDS011;32503;47.748;8.960;2023-05-13T09:02:09;4.07;;;3.83;;
3149;SDS011;32503;47.748;8.960;2023-05-13T09:04:37;3.83;;;3.63;;
3149;SDS011;32503;47.748;8.960;2023-05-13T09:07:07;3.93;;;3.80;;
3149;SDS011;32503;47.748;8.960;2023-05-13T09:09:35;4.30;;;3.97;;
3149;SDS011;32503;47.748;8.960;2023-05-13T09:12:03;3.40;;;3.20;;
3149;SDS011;32503;47.748;8.960;2023-05-13T09:14:31;3.87;;;3.67;;
3149;SDS011;32503;47.748;8.960;2023-05-13T09:16:59;4.03;;;3.83;;
3149;SDS011;32503;47.748;8.960;2023-05-13T09:19:26;4.17;;;3.93;;
3149;SDS011;32503;47.748;8.960;2023-05-13T09:21:54;3.57;;;3.40;;
3149;SDS011;32503;47.748;8.960;2023-05-13T09:24:23;4.10;;;3.90;;
3149;SDS011;32503;47.748;8.960;2023-05-13T09:26:50;4.47;;;4.27;;
3149;SDS011;32503;47.748;8.960;2023-05-13T09:29:18;3.90;;;3.70;;
3149;SDS011;32503;47.748;8.960;2023-05-13T09:31:48;3.77;;;3.57;;
3149;SDS011;32503;47.748;8.960;2023-05-13T09:34:23;4.20;;;4.00;;
3149;SDS011;32503;47.748;8.960;2023-05-13T09:36:55;4.60;;;4.40;;
3149;SDS011;32503;47.748;8.960;2023-05-13T09:39:25;4.00;;;3.80;;
3149;SDS011;32503;47.748;8.960;2023-05-13T09:41:53;3.93;;;3.73;;
3149;SDS011;32503;47.748;8.960;2023-05-13T09:44:20;4.47;;;4.27;;
3149;SDS011;32503;47.748;8.960;2023-05-13T09:46:49;4.30;;;4.10;;
3149;SDS011;32503;47.748;8.960;2023-05-13T09:49:17;4.20;;;4.00;;
3149;SDS011;32503;47.748;8.960;2023-05-13T09:51:47;4.87;;;4.57;;
3149;SDS011;32503;47.748;8.960;2023-05-13T09:54:14;5.10;;;4.80;;
3149;SDS011;32503;47.748;8.960;2023-05-13T09:56:43;3.90;;;3.70;;
3149;SDS011;32503;47.748;8.960;2023-05-13T09:59:10;5.23;;;4.53;;
3149;SDS011;32503;47.748;8.960;2023-05-13T10:01:37;7.67;;;4.30;;
3149;SDS011;32503;47.748;8.960;2023-05-13T10:04:05;6.30;;;5.77;;
3149;SDS011;32503;47.748;8.960;2023-05-13T10:06:32;4.97;;;4.57;;
3149;SDS011;32503;47.748;8.960;2023-05-13T10:09:01;5.03;;;4.33;;
3149;SDS011;32503;47.748;8.960;2023-05-13T10:11:31;5.37;;;5.03;;
3149;SDS011;32503;47.748;8.960;2023-05-13T10:14:04;4.40;;;4.20;;
3149;SDS011;32503;47.748;8.960;2023-05-13T10:16:32;5.33;;;4.93;;
3149;SDS011;32503;47.748;8.960;2023-05-13T10:18:59;4.13;;;3.93;;
3149;SDS011;32503;47.748;8.960;2023-05-13T10:21:28;5.10;;;4.80;;
3149;SDS011;32503;47.748;8.960;2023-05-13T10:23:56;4.87;;;4.57;;
3149;SDS011;32503;47.748;8.960;2023-05-13T10:26:24;5.10;;;4.80;;
3149;SDS011;32503;47.748;8.960;2023-05-13T10:28:52;4.83;;;4.53;;
3149;SDS011;32503;47.748;8.960;2023-05-13T10:31:22;5.03;;;4.67;;
3149;SDS011;32503;47.748;8.960;2023-05-13T10:33:50;5.57;;;5.17;;
3149;SDS011;32503;47.748;8.960;2023-05-13T10:36:31;4.40;;;4.10;;
3149;SDS011;32503;47.748;8.960;2023-05-13T10:39:34;5.00;;;4.70;;
3149;SDS011;32503;47.748;8.960;2023-05-13T10:42:41;4.43;;;4.13;;
3149;SDS011;32503;47.748;8.960;2023-05-13T10:45:13;7.20;;;4.60;;
3149;SDS011;32503;47.748;8.960;2023-05-13T10:47:47;6.00;;;5.50;;
3149;SDS011;32503;47.748;8.960;2023-05-13T10:50:22;6.03;;;5.00;;
3149;SDS011;32503;47.748;8.960;2023-05-13T10:52:53;5.20;;;4.80;;
3149;SDS011;32503;47.748;8.960;2023-05-13T10:55:22;4.60;;;4.30;;
3149;SDS011;32503;47.748;8.960;2023-05-13T10:58:11;4.77;;;4.47;;
3149;SDS011;32503;47.748;8.960;2023-05-13T11:00:40;4.70;;;4.40;;
3149;SDS011;32503;47.748;8.960;2023-05-13T11:03:11;5.00;;;4.70;;
3149;SDS011;32503;47.748;8.960;2023-05-13T11:05:40;5.97;;;5.47;;
3149;SDS011;32503;47.748;8.960;2023-05-13T11:08:18;6.60;;;6.10;;
3149;SDS011;32503;47.748;8.960;2023-05-13T11:11:06;6.00;;;5.50;;
3149;SDS011;32503;47.748;8.960;2023-05-13T11:13:44;6.30;;;5.70;;
3149;SDS011;32503;47.748;8.960;2023-05-13T11:16:11;6.27;;;5.87;;
3149;SDS011;32503;47.748;8.960;2023-05-13T11:18:40;6.67;;;6.17;;
3149;SDS011;32503;47.748;8.960;2023-05-13T11:21:07;7.50;;;6.90;;
3149;SDS011;32503;47.748;8.960;2023-05-13T11:23:48;5.97;;;5.50;;
3149;SDS011;32503;47.748;8.960;2023-05-13T11:26:18;5.47;;;5.07;;
3149;SDS011;32503;47.748;8.960;2023-05-13T11:28:52;6.30;;;5.90;;
3149;SDS011;32503;47.748;8.960;2023-05-13T11:31:25;6.40;;;5.80;;
3149;SDS011;32503;47.748;8.960;2023-05-13T11:34:11;7.17;;;6.40;;
3149;SDS011;32503;47.748;8.960;2023-05-13T11:36:40;6.83;;;6.23;;
3149;SDS011;32503;47.748;8.960;2023-05-13T11:39:10;6.77;;;6.17;;
3149;SDS011;32503;47.748;8.960;2023-05-13T11:41:40;5.90;;;5.47;;
3149;SDS011;32503;47.748;8.960;2023-05-13T11:44:11;6.50;;;5.90;;
3149;SDS011;32503;47.748;8.960;2023-05-13T11:46:52;7.00;;;6.40;;
3149;SDS011;32503;47.748;8.960;2023-05-13T11:49:35;7.03;;;6.47;;
3149;SDS011;32503;47.748;8.960;2023-05-13T11:52:05;7.10;;;6.40;;
3149;SDS011;32503;47.748;8.960;2023-05-13T11:54:44;8.37;;;7.57;;
3149;SDS011;32503;47.748;8.960;2023-05-13T11:57:14;6.77;;;6.17;;
3149;SDS011;32503;47.748;8.960;2023-05-13T11:59:48;8.30;;;6.20;;
3149;SDS011;32503;47.748;8.960;2023-05-13T12:02:19;7.30;;;6.60;;
3149;SDS011;32503;47.748;8.960;2023-05-13T12:04:48;8.23;;;7.13;;
3149;SDS011;32503;47.748;8.960;2023-05-13T12:07:18;7.07;;;6.47;;
3149;SDS011;32503;47.748;8.960;2023-05-13T12:09:47;8.77;;;7.47;;
3149;SDS011;32503;47.748;8.960;2023-05-13T12:12:14;9.67;;;8.67;;
3149;SDS011;32503;47.748;8.960;2023-05-13T12:14:42;8.47;;;7.77;;
3149;SDS011;32503;47.748;8.960;2023-05-13T12:17:11;8.93;;;8.03;;
3149;SDS011;32503;47.748;8.960;2023-05-13T12:19:38;10.80;;;8.33;;
3149;SDS011;32503;47.748;8.960;2023-05-13T12:22:07;9.10;;;8.07;;
3149;SDS011;32503;47.748;8.960;2023-05-13T12:24:34;9.47;;;8.57;;
3149;SDS011;32503;47.748;8.960;2023-05-13T12:27:04;7.07;;;6.37;;
3149;SDS011;32503;47.748;8.960;2023-05-13T12:29:38;9.80;;;7.60;;
3149;SDS011;32503;47.748;8.960;2023-05-13T12:32:06;10.90;;;8.83;;
3149;SDS011;32503;47.748;8.960;2023-05-13T12:34:36;9.30;;;7.23;;
3149;SDS011;32503;47.748;8.960;2023-05-13T12:37:11;8.37;;;7.40;;
3149;SDS011;32503;47.748;8.960;2023-05-13T12:39:39;8.20;;;7.50;;
3149;SDS011;32503;47.748;8.960;2023-05-13T12:42:13;8.50;;;6.80;;
3149;SDS011;32503;47.748;8.960;2023-05-13T12:44:42;9.23;;;8.27;;
3149;SDS011;32503;47.748;8.960;2023-05-13T12:47:10;9.63;;;8.70;;
3149;SDS011;32503;47.748;8.960;2023-05-13T12:49:52;9.70;;;8.40;;
3149;SDS011;32503;47.748;8.960;2023-05-13T12:52:22;8.23;;;7.53;;
3149;SDS011;32503;47.748;8.960;2023-05-13T12:54:49;8.80;;;7.50;;
3149;SDS011;32503;47.748;8.960;2023-05-13T12:57:16;8.50;;;7.70;;
3149;SDS011;32503;47.748;8.960;2023-05-13T12:59:44;8.20;;;7.50;;
3149;SDS011;32503;47.748;8.960;2023-05-13T13:02:20;8.30;;;7.60;;
3149;SDS011;32503;47.748;8.960;2023-05-13T13:04:47;9.23;;;8.40;;
3149;SDS011;32503;47.748;8.960;2023-05-13T13:07:14;10.13;;;7.27;;
3149;SDS011;32503;47.748;8.960;2023-05-13T13:09:43;9.87;;;8.93;;
3149;SDS011;32503;47.748;8.960;2023-05-13T13:12:10;9.30;;;8.50;;
3149;SDS011;32503;47.748;8.960;2023-05-13T13:14:37;9.30;;;8.23;;
3149;SDS011;32503;47.748;8.960;2023-05-13T13:17:04;12.10;;;9.00;;
3149;SDS011;32503;47.748;8.960;2023-05-13T13:19:31;9.17;;;7.83;;
3149;SDS011;32503;47.748;8.960;2023-05-13T13:21:58;11.10;;;8.13;;
3149;SDS011;32503;47.748;8.960;2023-05-13T13:24:25;8.70;;;7.90;;
3149;SDS011;32503;47.748;8.960;2023-05-13T13:26:53;8.10;;;7.50;;
3149;SDS011;32503;47.748;8.960;2023-05-13T13:29:20;8.33;;;7.57;;
3149;SDS011;32503;47.748;8.960;2023-05-13T13:31:48;9.00;;;8.10;;
3149;SDS011;32503;47.748;8.960;2023-05-13T13:34:16;8.70;;;7.87;;
3149;SDS011;32503;47.748;8.960;2023-05-13T13:36:43;9.47;;;7.77;;
3149;SDS011;32503;47.748;8.960;2023-05-13T13:39:10;7.77;;;7.17;;
3149;SDS011;32503;47.748;8.960;2023-05-13T13:41:37;9.57;;;8.57;;
3149;SDS011;32503;47.748;8.960;2023-05-13T13:44:05;10.60;;;8.03;;
3149;SDS011;32503;47.748;8.960;2023-05-13T13:46:33;9.27;;;7.87;;
3149;SDS011;32503;47.748;8.960;2023-05-13T13:49:00;9.80;;;8.27;;
3149;SDS011;32503;47.748;8.960;2023-05-13T13:51:27;8.70;;;7.90;;
3149;SDS011;32503;47.748;8.960;2023-05-13T13:53:54;9.00;;;8.10;;
3149;SDS011;32503;47.748;8.960;2023-05-13T13:56:21;8.23;;;7.50;;
3149;SDS011;32503;47.748;8.960;2023-05-13T13:58:48;9.37;;;8.37;;
3149;SDS011;32503;47.748;8.960;2023-05-13T14:01:16;7.20;;;6.70;;
3149;SDS011;32503;47.748;8.960;2023-05-13T14:03:43;8.60;;;7.87;;
3149;SDS011;32503;47.748;8.960;2023-05-13T14:06:10;10.83;;;8.90;;
3149;SDS011;32503;47.748;8.960;2023-05-13T14:08:37;10.97;;;7.67;;
3149;SDS011;32503;47.748;8.960;2023-05-13T14:11:04;10.90;;;8.17;;
3149;SDS011;32503;47.748;8.960;2023-05-13T14:13:31;9.67;;;8.07;;
3149;SDS011;32503;47.748;8.960;2023-05-13T14:15:58;8.30;;;7.60;;
3149;SDS011;32503;47.748;8.960;2023-05-13T14:18:27;8.90;;;8.10;;
3149;SDS011;32503;47.748;8.960;2023-05-13T14:20:54;16.33;;;9.37;;
3149;SDS011;32503;47.748;8.960;2023-05-13T14:23:21;9.93;;;8.10;;
3149;SDS011;32503;47.748;8.960;2023-05-13T14:25:48;9.13;;;8.23;;
3149;SDS011;32503;47.748;8.960;2023-05-13T14:28:15;8.97;;;8.00;;
3149;SDS011;32503;47.748;8.960;2023-05-13T14:30:42;8.23;;;7.50;;
3149;SDS011;32503;47.748;8.960;2023-05-13T14:33:09;9.77;;;8.80;;
3149;SDS011;32503;47.748;8.960;2023-05-13T14:35:37;9.80;;;8.80;;
3149;SDS011;32503;47.748;8.960;2023-05-13T14:38:04;7.40;;;6.80;;
3149;SDS011;32503;47.748;8.960;2023-05-13T14:40:33;9.20;;;8.30;;
3149;SDS011;32503;47.748;8.960;2023-05-13T14:43:00;7.30;;;6.70;;
3149;SDS011;32503;47.748;8.960;2023-05-13T14:45:27;8.33;;;7.53;;
3149;SDS011;32503;47.748;8.960;2023-05-13T14:47:54;7.60;;;6.93;;
3149;SDS011;32503;47.748;8.960;2023-05-13T14:50:21;8.73;;;7.80;;
3149;SDS011;32503;47.748;8.960;2023-05-13T14:52:49;7.93;;;7.23;;
3149;SDS011;32503;47.748;8.960;2023-05-13T14:55:16;8.17;;;7.33;;
3149;SDS011;32503;47.748;8.960;2023-05-13T14:57:43;8.93;;;8.03;;
3149;SDS011;32503;47.748;8.960;2023-05-13T15:00:11;8.63;;;7.80;;
3149;SDS011;32503;47.748;8.960;2023-05-13T15:02:39;8.70;;;7.47;;
3149;SDS011;32503;47.748;8.960;2023-05-13T15:05:07;9.83;;;8.27;;
3149;SDS011;32503;47.748;8.960;2023-05-13T15:07:35;8.83;;;8.07;;
3149;SDS011;32503;47.748;8.960;2023-05-13T15:10:04;9.37;;;8.33;;